Time;durP1;ratioP1;P1;durP2;ratioP2;P2;SDS_P1;SDS_P2;PMS_P1;PMS_P2;Temp;Humidity;BMP_temperature;BMP_pressure;BME280_temperature;BME280_humidity;BME280_pressure;Samples;Min_cycle;Max_cycle;Signal;HPM_P1;HPM_P2
2021/07/14 00:00:51;;;;;;;18.08;10.23;;;;;;;24.54;45.98;94831.13;4943899;29;20418;-82
2021/07/14 00:03:16;;;;;;;30.40;10.63;;;;;;;24.43;46.35;94833.38;4960802;28;20030;-82
2021/07/14 00:05:41;;;;;;;21.40;11.18;;;;;;;24.37;46.53;94834.63;4974085;23;20479;-82
2021/07/14 00:08:08;;;;;;;20.00;10.48;;;;;;;24.32;46.54;94834.81;4960669;29;20043;-81
2021/07/14 00:10:34;;;;;;;28.63;10.02;;;;;;;24.28;46.44;94828.56;4943470;28;20040;-82
2021/07/14 00:23:26;;;;;;;10.43;7.93;;;;;;;24.08;45.90;94838.00;4933359;29;20090;-81
2021/07/14 00:25:55;;;;;;;21.48;10.15;;;;;;;24.09;46.58;94833.47;4928020;29;20027;-81
2021/07/14 00:28:23;;;;;;;13.63;9.10;;;;;;;24.06;46.16;94834.06;4960543;29;20058;-80
2021/07/14 00:31:14;;;;;;;19.15;9.65;;;;;;;24.01;47.19;94826.28;4943648;28;20102;-81
2021/07/14 00:34:02;;;;;;;14.18;8.90;;;;;;;23.99;47.35;94828.47;4943402;29;20501;-81
2021/07/14 00:37:04;;;;;;;;;;;;;;;;;;;;;
2021/07/14 00:39:58;;;;;;;;;;;;;;;;;;;;;
2021/07/14 00:42:46;;;;;;;;;;;;;;;;;;;;;
2021/07/14 00:45:24;;;;;;;;;;;;;;;;;;;;;
2021/07/14 00:47:52;;;;;;;13.18;8.70;;;;;;;23.71;48.65;94839.44;4941980;29;20091;-81
2021/07/14 00:50:18;;;;;;;15.05;9.02;;;;;;;23.64;48.34;94836.50;4959915;29;20050;-81
2021/07/14 00:52:43;;;;;;;14.68;9.43;;;;;;;23.65;48.69;94840.69;4926644;29;20035;-81
2021/07/14 00:55:09;;;;;;;9.93;8.63;;;;;;;23.62;48.83;94838.69;4926865;29;20033;-81
2021/07/14 00:57:35;;;;;;;19.75;8.98;;;;;;;23.57;48.78;94841.47;4959376;28;20039;-81
2021/07/14 01:00:00;;;;;;;11.10;8.65;;;;;;;23.54;48.61;94840.19;4926635;29;20035;-81
2021/07/14 01:02:26;;;;;;;13.82;8.80;;;;;;;23.51;48.89;94840.03;4958902;28;20042;-81
2021/07/14 01:05:00;;;;;;;13.02;8.30;;;;;;;23.47;48.95;94839.91;4926280;29;20135;-81
2021/07/14 01:07:31;;;;;;;12.20;8.65;;;;;;;23.46;48.91;94837.56;4959217;28;20031;-80
2021/07/14 01:10:11;;;;;;;15.43;8.52;;;;;;;23.42;49.14;94836.59;4927404;29;20454;-81
2021/07/14 01:13:03;;;;;;;13.27;8.30;;;;;;;23.36;49.07;94844.72;4958535;28;20046;-81
2021/07/14 01:15:36;;;;;;;13.35;8.63;;;;;;;23.37;48.84;94848.16;4927332;28;20038;-81
2021/07/14 01:18:30;;;;;;;16.13;8.45;;;;;;;23.35;48.80;94842.38;4926641;29;20055;-81
2021/07/14 01:21:18;;;;;;;11.63;8.85;;;;;;;23.32;48.72;94854.41;4941827;29;20038;-81
2021/07/14 01:23:55;;;;;;;14.40;8.95;;;;;;;23.29;48.94;94857.69;4929270;29;20046;-81
2021/07/14 01:26:58;;;;;;;18.00;8.48;;;;;;;23.30;49.16;94851.28;4927314;29;20051;-81
2021/07/14 01:29:23;;;;;;;15.77;8.65;;;;;;;23.26;49.23;94849.53;4941792;29;20495;-81
2021/07/14 01:31:49;;;;;;;9.70;8.38;;;;;;;23.22;49.33;94852.03;4925342;29;20046;-81
2021/07/14 01:34:15;;;;;;;12.38;9.30;;;;;;;23.19;49.48;94852.66;4925227;29;20050;-80
2021/07/14 01:36:44;;;;;;;19.90;8.75;;;;;;;23.17;49.58;94852.19;4971380;23;20101;-81
2021/07/14 01:39:10;;;;;;;22.40;8.43;;;;;;;23.18;49.85;94852.97;4977019;28;20090;-80
2021/07/14 01:41:37;;;;;;;12.80;9.77;;;;;;;23.15;50.11;94854.38;4943891;28;20471;-80
2021/07/14 01:44:03;;;;;;;16.38;8.95;;;;;;;23.11;50.26;94850.78;4928389;28;20035;-80
2021/07/14 01:46:30;;;;;;;19.00;9.02;;;;;;;23.09;50.07;94850.28;4944003;28;20073;-80
2021/07/14 01:48:56;;;;;;;16.88;8.32;;;;;;;23.05;50.50;94850.13;4944770;28;20035;-80
2021/07/14 01:51:22;;;;;;;11.13;8.85;;;;;;;23.03;50.40;94852.31;4944299;28;20034;-80
2021/07/14 01:53:48;;;;;;;16.27;9.40;;;;;;;23.01;50.66;94853.72;4944129;28;20038;-80
2021/07/14 01:56:13;;;;;;;10.88;9.00;;;;;;;22.95;51.00;94849.66;4981849;23;20173;-80
2021/07/14 01:58:43;;;;;;;14.85;8.88;;;;;;;22.87;51.17;94851.19;4959018;28;20042;-80
2021/07/14 02:01:13;;;;;;;18.42;9.65;;;;;;;22.82;51.39;94846.03;4956760;29;20036;-80
2021/07/14 02:03:42;;;;;;;18.83;9.27;;;;;;;22.79;51.32;94856.44;4940892;29;20058;-81
2021/07/14 02:06:08;;;;;;;17.67;9.70;;;;;;;22.76;51.68;94852.53;4909200;29;20035;-79
2021/07/14 02:08:38;;;;;;;13.20;9.10;;;;;;;22.69;51.54;94860.94;4924947;29;20097;-80
2021/07/14 02:11:04;;;;;;;19.50;9.38;;;;;;;22.67;51.50;94859.69;4924523;29;20037;-80
2021/07/14 02:13:29;;;;;;;14.52;9.40;;;;;;;22.60;51.90;94870.69;4924604;29;20114;-81
2021/07/14 02:15:56;;;;;;;15.02;9.50;;;;;;;22.57;51.75;94876.63;4940484;29;20039;-81
2021/07/14 02:18:23;;;;;;;22.63;9.70;;;;;;;22.57;50.91;94866.03;4909222;29;20491;-80
2021/07/14 02:20:48;;;;;;;15.60;9.38;;;;;;;22.57;50.70;94871.31;4925066;29;20103;-80
2021/07/14 02:23:14;;;;;;;13.32;8.98;;;;;;;22.54;50.77;94871.94;4909025;29;20112;-80
2021/07/14 02:25:39;;;;;;;10.82;9.07;;;;;;;22.56;50.53;94877.72;4943604;29;20035;-80
2021/07/14 02:28:05;;;;;;;12.98;8.75;;;;;;;22.55;50.32;94873.50;4927179;29;20035;-80
2021/07/14 02:33:09;;;;;;;10.45;8.60;;;;;;;22.49;50.67;94877.38;4959375;28;20058;-80
2021/07/14 02:35:39;;;;;;;12.07;8.68;;;;;;;22.46;50.91;94886.72;4961155;28;20073;-80
2021/07/14 02:38:12;;;;;;;12.77;9.63;;;;;;;22.45;51.37;94889.66;4944983;29;20027;-80
2021/07/14 02:41:06;;;;;;;16.90;9.30;;;;;;;22.42;51.25;94884.97;4943505;28;20476;-80
2021/07/14 02:43:34;;;;;;;17.73;9.82;;;;;;;22.41;51.15;94886.06;4946424;29;20050;-80
2021/07/14 02:46:10;;;;;;;17.85;9.90;;;;;;;22.40;51.25;94892.44;4928281;29;20034;-80
2021/07/14 02:48:36;;;;;;;13.07;9.35;;;;;;;22.37;51.52;94887.75;4941917;29;20035;-79
2021/07/14 02:51:02;;;;;;;21.63;8.55;;;;;;;22.36;50.93;94896.78;4944436;29;20042;-80
2021/07/14 02:53:32;;;;;;;18.27;9.10;;;;;;;22.36;51.15;94894.13;4928614;29;20039;-80
2021/07/14 02:56:02;;;;;;;15.38;9.50;;;;;;;22.35;51.06;94901.31;4944661;29;20086;-80
2021/07/14 02:58:34;;;;;;;27.25;9.13;;;;;;;22.34;51.29;94904.25;4927860;29;20060;-79
2021/07/14 03:01:00;;;;;;;22.27;9.43;;;;;;;22.34;51.60;94909.56;4912441;29;20050;-80
2021/07/14 03:03:25;;;;;;;15.15;8.90;;;;;;;22.34;51.35;94914.88;4927542;29;20228;-80
2021/07/14 03:05:57;;;;;;;24.88;9.32;;;;;;;22.33;51.23;94914.09;4960328;28;20043;-79
2021/07/14 03:08:30;;;;;;;13.27;9.20;;;;;;;22.32;51.31;94911.75;4945157;29;20055;-80
2021/07/14 03:10:56;;;;;;;13.82;9.48;;;;;;;22.30;51.11;94908.63;4967518;23;20400;-78
2021/07/14 03:13:23;;;;;;;26.52;9.52;;;;;;;22.25;50.98;94909.50;4967572;29;20066;-78
2021/07/14 03:15:50;;;;;;;15.43;9.80;;;;;;;22.29;51.26;94907.03;4948299;28;20024;-80
2021/07/14 03:18:15;;;;;;;14.90;9.57;;;;;;;;;;4929014;29;20090;-80
2021/07/14 03:20:41;;;;;;;18.17;9.63;;;;;;;22.38;50.31;94899.91;4961044;28;20039;-80
2021/07/14 03:23:06;;;;;;;16.75;9.80;;;;;;;22.43;50.79;94902.44;4927783;29;20411;-80
2021/07/14 03:25:32;;;;;;;33.72;10.77;;;;;;;22.48;50.99;94907.63;4942920;28;20039;-80
2021/07/14 03:27:57;;;;;;;39.33;11.73;;;;;;;22.52;51.08;94899.84;4942855;29;20031;-80
2021/07/14 03:30:23;;;;;;;34.28;10.70;;;;;;;22.58;51.18;94904.69;4927074;29;20035;-80
2021/07/14 03:32:48;;;;;;;25.45;10.70;;;;;;;22.66;50.96;94901.31;4943708;29;20027;-80
2021/07/14 03:35:14;;;;;;;22.73;10.43;;;;;;;22.74;50.77;94905.84;4926587;29;20031;-80
2021/07/14 03:37:48;;;;;;;26.55;11.00;;;;;;;22.80;50.53;94905.72;4927213;29;20497;-80
2021/07/14 03:40:13;;;;;;;31.10;10.73;;;;;;;22.83;50.50;94905.94;4943535;29;20036;-80
2021/07/14 03:42:39;;;;;;;20.13;11.05;;;;;;;22.86;50.78;94909.84;4959128;28;20038;-80
2021/07/14 03:45:06;;;;;;;48.13;13.45;;;;;;;22.94;50.47;94911.72;4927445;29;20049;-80
2021/07/14 03:47:34;;;;;;;51.42;12.05;;;;;;;23.06;50.24;94915.34;4925441;29;20514;-80
2021/07/14 03:50:06;;;;;;;29.27;11.05;;;;;;;23.12;50.17;94920.53;4959202;29;20048;-79
2021/07/14 03:52:31;;;;;;;27.98;11.38;;;;;;;23.20;49.90;94923.19;4960018;28;20043;-80
2021/07/14 03:54:57;;;;;;;26.30;10.57;;;;;;;23.29;49.09;94924.00;4942429;29;20554;-80
2021/07/14 03:57:22;;;;;;;34.60;9.80;;;;;;;23.39;49.18;94924.78;4942835;29;20415;-80
2021/07/14 03:59:49;;;;;;;18.13;9.48;;;;;;;23.56;48.87;94932.78;4959858;29;20039;-80
2021/07/14 04:02:15;;;;;;;32.85;9.77;;;;;;;23.70;48.65;94933.47;4927505;29;20030;-80
2021/07/14 04:04:40;;;;;;;22.67;10.30;;;;;;;23.88;48.47;94923.63;4943152;29;20031;-80
2021/07/14 04:07:13;;;;;;;18.27;9.18;;;;;;;24.03;47.80;94930.34;4942774;29;20024;-79
2021/07/14 04:09:39;;;;;;;19.60;8.70;;;;;;;24.80;45.30;94940.06;4943837;29;20027;-81
2021/07/14 04:12:04;;;;;;;18.90;8.52;;;;;;;26.44;42.09;94933.75;4924188;29;20039;-80
2021/07/14 04:14:36;;;;;;;30.48;9.95;;;;;;;28.09;38.69;94925.16;4959725;29;20066;-79
2021/07/14 04:17:01;;;;;;;42.97;9.88;;;;;;;29.50;36.04;94928.38;4959187;28;20059;-80
2021/07/14 04:19:27;;;;;;;18.73;8.68;;;;;;;30.82;33.53;94929.09;4959486;29;20082;-80
2021/07/14 04:21:53;;;;;;;22.40;7.57;;;;;;;32.01;30.89;94922.44;4960337;28;20184;-81
2021/07/14 04:24:19;;;;;;;23.75;6.93;;;;;;;33.15;29.32;94923.63;4957033;29;20090;-81
2021/07/14 04:26:44;;;;;;;14.75;7.63;;;;;;;34.19;27.74;94930.47;4959897;28;20031;-81
2021/07/14 04:29:10;;;;;;;20.42;7.50;;;;;;;35.19;26.07;94915.25;4943961;29;20118;-81
2021/07/14 04:31:35;;;;;;;9.50;6.45;;;;;;;35.93;25.08;94919.00;4959479;28;20031;-81
2021/07/14 04:34:01;;;;;;;13.52;6.65;;;;;;;36.73;23.78;94919.03;4929129;29;20035;-81
2021/07/14 04:36:27;;;;;;;18.13;6.40;;;;;;;37.62;22.23;94920.31;4969645;28;20031;-80
2021/07/14 04:38:52;;;;;;;11.57;6.28;;;;;;;38.50;21.54;94932.13;4952555;29;20035;-82
2021/07/14 04:41:18;;;;;;;9.52;5.80;;;;;;;39.38;20.36;94933.94;4930822;29;20038;-81
2021/07/14 04:43:43;;;;;;;17.77;5.93;;;;;;;40.17;19.40;94932.13;4943830;23;20081;-81
2021/07/14 04:46:09;;;;;;;11.52;5.72;;;;;;;40.70;18.53;94941.19;4978553;28;20030;-81
2021/07/14 04:48:35;;;;;;;17.88;6.15;;;;;;;41.50;17.94;94947.13;4978474;28;20035;-82
2021/07/14 04:51:00;;;;;;;13.52;5.60;;;;;;;42.11;17.40;94946.34;4944567;23;20046;-81
2021/07/14 04:53:26;;;;;;;12.98;4.35;;;;;;;42.77;17.11;94955.00;4959486;29;20443;-82
2021/07/14 04:55:58;;;;;;;16.25;5.07;;;;;;;43.39;16.42;94958.94;4959291;29;20019;-81
2021/07/14 04:58:24;;;;;;;11.40;5.15;;;;;;;43.96;16.19;94961.75;4942425;29;20546;-82
2021/07/14 05:00:49;;;;;;;11.00;5.10;;;;;;;44.55;15.47;94957.31;4959730;29;20032;-82
2021/07/14 05:03:18;;;;;;;7.97;4.90;;;;;;;45.17;15.06;94963.53;4940179;29;20302;-82
2021/07/14 05:05:43;;;;;;;19.17;5.00;;;;;;;45.70;14.25;94955.13;4958166;29;20023;-82
2021/07/14 05:08:10;;;;;;;11.85;4.45;;;;;;;46.22;14.01;94961.56;4936808;29;20035;-81
2021/07/14 05:10:41;;;;;;;10.13;4.07;;;;;;;46.37;13.64;94956.94;4981670;23;20059;-81
2021/07/14 05:13:07;;;;;;;10.35;5.07;;;;;;;46.83;12.86;94967.09;4959265;29;20094;-81
2021/07/14 05:15:32;;;;;;;10.15;4.82;;;;;;;47.29;12.84;94964.16;4959107;28;20035;-81
2021/07/14 05:17:58;;;;;;;12.60;5.20;;;;;;;47.78;12.69;94967.22;4959731;29;20027;-82
2021/07/14 05:20:23;;;;;;;15.93;4.72;;;;;;;48.39;12.21;94967.66;4939011;29;20031;-81
2021/07/14 05:22:49;;;;;;;28.48;5.32;;;;;;;48.82;11.57;94965.38;4964750;23;20054;-82
2021/07/14 05:25:15;;;;;;;15.35;4.88;;;;;;;49.23;11.15;94960.72;4959233;29;20035;-81
2021/07/14 05:27:41;;;;;;;18.42;5.00;;;;;;;49.69;10.99;94962.13;4941917;29;20031;-82
2021/07/14 05:30:08;;;;;;;9.82;4.60;;;;;;;50.23;10.58;94959.69;4941841;29;20031;-81
2021/07/14 05:32:33;;;;;;;15.35;5.40;;;;;;;50.57;10.01;94960.78;4989325;23;20018;-82
2021/07/14 05:34:59;;;;;;;18.80;5.55;;;;;;;50.85;10.02;94966.56;4958702;29;20041;-82
2021/07/14 05:37:27;;;;;;;16.40;4.90;;;;;;;51.13;10.21;94955.72;4954923;23;20499;-82
2021/07/14 05:39:53;;;;;;;19.70;5.20;;;;;;;51.65;10.05;94961.03;4979823;23;20051;-82
2021/07/14 05:42:18;;;;;;;13.35;5.13;;;;;;;51.80;9.50;94964.38;4959183;28;20062;-82
2021/07/14 05:44:44;;;;;;;13.75;5.20;;;;;;;51.88;9.75;94968.19;4957134;29;20038;-82
2021/07/14 05:47:10;;;;;;;15.48;5.57;;;;;;;52.26;9.60;94966.06;4958166;28;20499;-81
2021/07/14 05:49:35;;;;;;;18.60;5.38;;;;;;;52.50;9.32;94958.00;4958827;29;20041;-82
2021/07/14 05:52:01;;;;;;;12.18;4.63;;;;;;;52.74;8.78;94969.41;4939922;29;20023;-83
2021/07/14 05:54:28;;;;;;;17.60;4.72;;;;;;;52.98;8.72;94968.13;4958744;29;20047;-81
2021/07/14 05:56:54;;;;;;;14.57;4.90;;;;;;;53.16;8.93;94964.81;4958345;28;20066;-82
2021/07/14 05:59:19;;;;;;;15.27;4.75;;;;;;;53.41;9.15;94962.28;4958115;29;20478;-81
2021/07/14 06:01:45;;;;;;;11.57;4.97;;;;;;;53.80;8.98;94968.44;4957812;28;20028;-81
2021/07/14 06:04:10;;;;;;;32.08;5.88;;;;;;;53.85;8.10;94967.66;4958073;29;20031;-81
2021/07/14 06:06:36;;;;;;;14.60;4.97;;;;;;;54.04;8.22;94961.53;4958515;28;20506;-81
2021/07/14 06:09:01;;;;;;;19.17;5.28;;;;;;;54.17;8.36;94964.47;4945566;23;20155;-81
2021/07/14 06:11:27;;;;;;;12.68;4.82;;;;;;;54.33;8.12;94965.66;4957655;28;20047;-82
2021/07/14 06:13:52;;;;;;;15.27;5.35;;;;;;;54.30;7.89;94969.44;4957384;29;20492;-82
2021/07/14 06:16:18;;;;;;;17.98;5.55;;;;;;;54.33;8.14;94971.22;4941762;29;20031;-79
2021/07/14 06:18:43;;;;;;;15.27;5.38;;;;;;;54.29;8.18;94970.72;4959479;29;20035;-80
2021/07/14 06:21:09;;;;;;;19.98;5.40;;;;;;;54.26;8.13;94961.38;4928229;29;20031;-80
2021/07/14 06:23:34;;;;;;;25.50;5.68;;;;;;;53.95;7.80;94960.53;4926951;29;20039;-80
2021/07/14 06:26:00;;;;;;;19.65;5.57;;;;;;;54.08;8.26;94959.22;4942743;29;20051;-80
2021/07/14 06:28:29;;;;;;;30.55;5.47;;;;;;;53.85;8.73;94964.88;4941658;29;20023;-79
2021/07/14 06:30:54;;;;;;;22.92;5.75;;;;;;;53.72;9.11;94963.94;4935111;23;20063;-82
2021/07/14 06:33:22;;;;;;;25.80;5.07;;;;;;;53.71;8.47;94963.19;4978435;28;20047;-82
2021/07/14 06:35:47;;;;;;;19.70;5.25;;;;;;;53.22;8.67;94967.59;4960060;28;20053;-82
2021/07/14 06:38:13;;;;;;;14.80;4.85;;;;;;;52.70;9.05;94963.34;4960851;28;20410;-80
2021/07/14 06:40:41;;;;;;;12.77;4.85;;;;;;;53.06;9.24;94969.16;4977671;28;20030;-82
2021/07/14 06:43:09;;;;;;;18.02;5.07;;;;;;;52.48;9.44;94968.88;4960594;28;20034;-82
2021/07/14 06:45:37;;;;;;;21.10;5.18;;;;;;;52.26;9.60;94960.50;4977659;28;20031;-80
2021/07/14 06:48:09;;;;;;;28.90;4.55;;;;;;;51.88;10.15;94954.31;4976714;28;20027;-79
2021/07/14 06:50:37;;;;;;;15.73;4.32;;;;;;;50.68;10.91;94955.34;4980756;28;20019;-81
2021/07/14 06:53:04;;;;;;;20.80;4.70;;;;;;;50.02;11.04;94953.47;4978551;28;20039;-82
2021/07/14 06:55:32;;;;;;;21.67;4.40;;;;;;;49.49;11.61;94943.50;4976440;28;20106;-82
2021/07/14 06:57:57;;;;;;;22.98;4.60;;;;;;;49.24;11.66;94942.91;4977050;28;20039;-80
2021/07/14 07:02:55;;;;;;;12.90;5.13;;;;;;;48.85;11.67;94952.63;5073138;23;20530;-82
2021/07/14 07:05:21;;;;;;;21.30;4.82;;;;;;;48.44;12.17;94946.91;4957815;29;20035;-82
2021/07/14 07:07:46;;;;;;;12.10;4.93;;;;;;;47.53;12.92;94948.44;4957032;28;20083;-83
2021/07/14 07:10:12;;;;;;;9.45;4.78;;;;;;;46.93;13.66;94941.84;4941016;29;20034;-82
2021/07/14 07:12:44;;;;;;;22.50;5.13;;;;;;;46.51;14.11;94932.78;4943716;29;20035;-82
2021/07/14 07:15:13;;;;;;;14.65;4.78;;;;;;;45.95;14.57;94937.59;4960094;29;20052;-82
2021/07/14 07:17:39;;;;;;;11.65;5.38;;;;;;;45.32;14.57;94932.78;4960406;28;20042;-82
2021/07/14 07:20:05;;;;;;;16.25;5.85;;;;;;;44.78;15.52;94932.13;4958850;29;20136;-82
2021/07/14 07:22:36;;;;;;;7.07;5.18;;;;;;;44.38;15.95;94921.09;5007266;23;20239;-82
2021/07/14 07:25:03;;;;;;;14.65;5.18;;;;;;;44.07;16.09;94929.25;4958827;29;20203;-82
2021/07/14 07:27:36;;;;;;;18.27;5.30;;;;;;;43.76;16.22;94929.16;4959797;28;20479;-82
2021/07/14 07:30:03;;;;;;;21.13;5.22;;;;;;;43.32;16.71;94931.06;4929272;29;20054;-81
2021/07/14 07:32:32;;;;;;;14.75;5.90;;;;;;;42.89;17.13;94921.41;4964572;23;20046;-82
2021/07/14 07:34:57;;;;;;;16.25;5.63;;;;;;;42.48;17.78;94922.25;4958560;29;20488;-82
2021/07/14 07:37:29;;;;;;;17.25;6.53;;;;;;;42.29;18.09;94923.97;4942670;29;20031;-82
2021/07/14 07:39:54;;;;;;;19.48;6.10;;;;;;;42.22;18.28;94919.47;4960231;29;20043;-83
2021/07/14 07:42:19;;;;;;;15.23;5.25;;;;;;;42.02;18.12;94916.13;4960273;28;20105;-82
2021/07/14 07:44:45;;;;;;;11.93;5.88;;;;;;;41.80;18.51;94920.63;4942508;29;20487;-82
2021/07/14 07:47:11;;;;;;;19.30;6.10;;;;;;;41.60;18.85;94918.78;4924642;29;20062;-82
2021/07/14 07:49:38;;;;;;;13.95;5.75;;;;;;;41.49;18.93;94906.59;4974034;23;20058;-82
2021/07/14 07:52:04;;;;;;;19.17;6.00;;;;;;;41.37;19.28;94908.09;4959823;28;20086;-82
2021/07/14 07:54:29;;;;;;;28.63;5.80;;;;;;;41.23;19.28;94906.44;4959828;29;20027;-82
2021/07/14 07:56:55;;;;;;;87.55;10.43;;;;;;;41.12;19.39;94905.16;4959941;28;20086;-82
2021/07/14 07:59:21;;;;;;;26.05;6.72;;;;;;;40.70;19.74;94902.25;4942857;29;20066;-82
2021/07/14 08:01:49;;;;;;;15.00;6.35;;;;;;;40.44;19.76;94904.75;4942424;29;20019;-80
2021/07/14 08:04:16;;;;;;;18.70;6.50;;;;;;;40.35;19.70;94893.59;4959272;29;20031;-82
2021/07/14 08:06:53;;;;;;;13.70;6.15;;;;;;;40.20;19.79;94898.63;4959995;28;20031;-82
2021/07/14 08:09:19;;;;;;;20.23;6.00;;;;;;;40.03;19.77;94893.50;4960112;29;20039;-82
2021/07/14 08:11:44;;;;;;;11.85;5.97;;;;;;;39.92;20.17;94894.47;4961675;23;20046;-82
2021/07/14 08:14:10;;;;;;;23.48;6.80;;;;;;;39.67;20.32;94894.19;4959719;29;20031;-82
2021/07/14 08:16:35;;;;;;;20.67;6.97;;;;;;;39.44;20.62;94891.47;4958937;28;20035;-82
2021/07/14 08:19:01;;;;;;;16.95;6.78;;;;;;;39.30;20.98;94882.38;4959182;29;20426;-82
2021/07/14 08:21:26;;;;;;;12.32;6.88;;;;;;;39.19;20.98;94892.66;4958315;28;20166;-82
2021/07/14 08:23:51;;;;;;;12.00;5.90;;;;;;;38.57;20.95;94893.22;4960157;29;20046;-82
2021/07/14 08:26:17;;;;;;;10.88;6.00;;;;;;;38.42;21.17;94884.50;4980139;23;20043;-81
2021/07/14 08:28:43;;;;;;;8.40;5.80;;;;;;;38.44;21.82;94884.84;4960511;29;20031;-81
2021/07/14 08:31:08;;;;;;;21.85;6.07;;;;;;;38.35;21.40;94884.56;4943776;29;20027;-81
2021/07/14 08:33:34;;;;;;;11.85;5.88;;;;;;;38.37;21.21;94882.22;4942644;29;20043;-81
2021/07/14 08:36:00;;;;;;;18.73;6.75;;;;;;;37.89;22.09;94902.19;4942702;29;20035;-80
2021/07/14 08:38:26;;;;;;;17.65;6.80;;;;;;;36.87;22.81;94891.88;4926718;29;20031;-81
2021/07/14 08:40:52;;;;;;;17.10;7.22;;;;;;;36.45;23.98;94881.28;4959507;28;20463;-81
2021/07/14 08:43:18;;;;;;;16.90;7.30;;;;;;;35.81;24.54;94889.66;4959152;29;20089;-81
2021/07/14 08:45:47;;;;;;;23.30;6.95;;;;;;;35.87;24.40;94888.88;4940383;28;20129;-80
2021/07/14 08:48:15;;;;;;;16.98;7.43;;;;;;;35.87;24.78;94882.72;4958841;29;20074;-80
2021/07/14 08:50:43;;;;;;;19.75;7.05;;;;;;;35.96;24.72;94886.53;4959102;28;20035;-81
2021/07/14 08:53:19;;;;;;;13.32;7.43;;;;;;;35.82;24.06;94883.09;4941820;29;20060;-81
2021/07/14 08:55:45;;;;;;;23.92;6.95;;;;;;;35.63;23.86;94885.06;4959660;28;20035;-81
2021/07/14 08:58:20;;;;;;;13.48;6.45;;;;;;;35.68;23.91;94883.91;4959228;29;20034;-80
2021/07/14 09:00:47;;;;;;;11.20;6.53;;;;;;;35.85;23.67;94880.41;4942264;28;20086;-81
2021/07/14 09:03:13;;;;;;;15.85;7.05;;;;;;;35.71;24.26;94886.59;4926219;29;20038;-80
2021/07/14 09:05:38;;;;;;;14.77;6.75;;;;;;;35.83;24.27;94881.94;4942301;28;20032;-81
2021/07/14 09:08:04;;;;;;;17.13;6.65;;;;;;;35.91;24.12;94878.03;4958620;29;20463;-81
2021/07/14 09:10:29;;;;;;;16.75;6.65;;;;;;;36.03;24.11;94869.50;4941611;28;20031;-81
2021/07/14 09:12:57;;;;;;;20.80;7.07;;;;;;;36.10;23.89;94869.44;4959303;29;20031;-81
2021/07/14 09:15:26;;;;;;;29.85;7.00;;;;;;;36.09;24.15;94876.81;4941401;29;20035;-81
2021/07/14 09:17:55;;;;;;;12.32;6.40;;;;;;;35.95;24.01;94867.97;4926569;29;20070;-81
2021/07/14 09:20:28;;;;;;;7.65;6.25;;;;;;;35.52;24.56;94872.75;4926430;29;20037;-80
2021/07/14 09:23:11;;;;;;;12.95;6.93;;;;;;;35.13;24.92;94885.13;4926120;29;20043;-81
2021/07/14 09:25:46;;;;;;;19.50;6.55;;;;;;;34.97;25.28;94873.94;4939682;28;20097;-81
2021/07/14 09:28:14;;;;;;;10.85;6.13;;;;;;;35.12;24.94;94864.66;4958699;29;20038;-81
2021/07/14 09:30:40;;;;;;;7.78;6.63;;;;;;;35.23;25.29;94858.47;4957374;28;20427;-80
2021/07/14 09:33:13;;;;;;;19.80;6.20;;;;;;;35.12;24.82;94864.66;4941011;29;20090;-80
2021/07/14 09:35:38;;;;;;;8.30;6.22;;;;;;;34.87;24.98;94863.91;4941696;28;20042;-80
2021/07/14 09:38:15;;;;;;;12.07;6.50;;;;;;;34.52;25.14;94873.50;4945403;29;20070;-80
2021/07/14 09:40:42;;;;;;;21.58;6.85;;;;;;;34.53;25.33;94875.03;4929550;28;20039;-80
2021/07/14 09:43:11;;;;;;;9.80;6.32;;;;;;;34.66;25.12;94861.16;5035720;23;20101;-81
2021/07/14 09:45:37;;;;;;;21.10;6.82;;;;;;;34.77;24.85;94868.09;4977249;28;20093;-81
2021/07/14 09:48:04;;;;;;;10.38;6.40;;;;;;;34.52;25.52;94868.09;4977900;28;20458;-81
2021/07/14 09:50:37;;;;;;;9.02;5.88;;;;;;;33.66;26.34;94871.59;4960614;28;20510;-81
2021/07/14 09:53:11;;;;;;;19.17;6.90;;;;;;;33.12;26.58;94875.88;4958915;28;20478;-80
2021/07/14 09:55:38;;;;;;;14.13;7.60;;;;;;;33.09;26.49;94871.25;4977799;28;20502;-81
2021/07/14 09:58:15;;;;;;;7.30;6.60;;;;;;;33.31;26.15;94872.16;4977842;28;20033;-80
2021/07/14 10:00:42;;;;;;;8.05;6.47;;;;;;;33.56;25.67;94869.66;4959713;28;20466;-81
2021/07/14 10:03:07;;;;;;;16.38;6.38;;;;;;;33.79;26.08;94864.75;4944624;28;20061;-80
2021/07/14 10:05:33;;;;;;;11.90;6.45;;;;;;;33.80;25.94;94862.81;4926235;28;20031;-80
2021/07/14 10:08:18;;;;;;;12.02;6.40;;;;;;;33.63;26.10;94858.88;4943848;28;20035;-80
2021/07/14 10:10:44;;;;;;;12.75;6.28;;;;;;;33.50;25.91;94857.66;4976968;28;20572;-80
2021/07/14 10:13:10;;;;;;;15.77;6.78;;;;;;;33.59;26.44;94850.00;4943628;28;20034;-81
2021/07/14 10:15:36;;;;;;;17.30;7.18;;;;;;;33.50;26.28;94846.88;4977018;28;20031;-81
2021/07/14 10:18:01;;;;;;;15.38;6.85;;;;;;;33.53;25.97;94852.31;4959674;28;20042;-80
2021/07/14 10:20:30;;;;;;;7.20;6.50;;;;;;;33.59;26.46;94855.41;4975605;28;20054;-81
2021/07/14 10:23:01;;;;;;;15.55;6.75;;;;;;;33.08;26.85;94858.94;4960049;28;20030;-80
2021/07/14 10:25:27;;;;;;;10.38;6.13;;;;;;;33.02;25.93;94842.31;4926472;28;20031;-81
2021/07/14 10:27:53;;;;;;;7.38;6.55;;;;;;;32.83;26.80;94846.03;4976344;28;20085;-80
2021/07/14 10:30:19;;;;;;;16.75;6.75;;;;;;;32.76;27.25;94837.88;4976913;28;20042;-80
2021/07/14 10:32:45;;;;;;;12.43;6.72;;;;;;;32.84;26.22;94836.81;4962132;23;20043;-80
2021/07/14 10:35:21;;;;;;;11.55;6.35;;;;;;;32.96;25.42;94845.75;4942957;29;20038;-79
2021/07/14 10:37:51;;;;;;;9.18;6.43;;;;;;;33.14;25.41;94836.63;4961522;29;20031;-79
2021/07/14 10:40:18;;;;;;;11.73;5.80;;;;;;;33.09;25.05;94833.53;4958897;28;20027;-80
2021/07/14 10:42:47;;;;;;;13.07;6.55;;;;;;;32.93;26.24;94833.03;4953794;29;20109;-80
2021/07/14 10:45:13;;;;;;;14.27;6.55;;;;;;;32.92;26.29;94834.94;4958574;28;20035;-80
2021/07/14 10:47:38;;;;;;;15.85;6.78;;;;;;;32.92;26.58;94839.56;4959797;29;20031;-80
2021/07/14 10:50:10;;;;;;;15.27;6.82;;;;;;;33.04;26.53;94826.56;4960471;29;20031;-79
2021/07/14 10:52:36;;;;;;;13.15;6.22;;;;;;;33.26;26.23;94830.16;4960491;28;20118;-80
2021/07/14 10:55:21;;;;;;;11.65;6.80;;;;;;;33.40;25.27;94822.19;4960045;28;20035;-80
2021/07/14 10:57:47;;;;;;;12.25;6.28;;;;;;;33.42;24.12;94825.28;4959208;28;20042;-80
2021/07/14 11:00:16;;;;;;;7.88;5.80;;;;;;;33.52;24.68;94820.31;4943142;29;20028;-79
2021/07/14 11:02:43;;;;;;;7.57;5.88;;;;;;;33.61;23.94;94816.13;4958802;28;20054;-81
2021/07/14 11:05:09;;;;;;;9.02;5.68;;;;;;;33.68;24.27;94818.84;4959541;28;20035;-81
2021/07/14 11:07:42;;;;;;;15.13;6.18;;;;;;;33.66;24.58;94817.66;4960765;28;20514;-81
2021/07/14 11:10:51;;;;;;;10.80;5.88;;;;;;;33.45;23.60;94810.28;4943483;29;20399;-81
2021/07/14 11:13:28;;;;;;;8.57;6.15;;;;;;;33.03;24.22;94822.34;4923587;29;20042;-80
2021/07/14 11:15:54;;;;;;;10.23;5.63;;;;;;;32.79;23.40;94806.72;4954435;29;20043;-80
2021/07/14 11:18:29;;;;;;;13.07;6.35;;;;;;;32.49;24.19;94802.25;4950551;29;20043;-80
2021/07/14 11:20:55;;;;;;;18.65;5.50;;;;;;;32.57;23.78;94805.81;4959830;28;20047;-80
2021/07/14 11:23:21;;;;;;;6.47;4.95;;;;;;;32.60;23.96;94806.97;4958724;28;20195;-80
2021/07/14 11:25:51;;;;;;;20.25;5.75;;;;;;;32.59;23.82;94798.13;4960246;28;20043;-80
2021/07/14 11:28:20;;;;;;;8.38;5.95;;;;;;;32.74;22.85;94796.31;4961220;28;20027;-80
2021/07/14 11:30:49;;;;;;;14.80;5.53;;;;;;;32.90;22.85;94793.38;4943940;29;20122;-81
2021/07/14 11:33:48;;;;;;;10.43;5.53;;;;;;;33.05;22.97;94795.78;4959234;29;20057;-80
2021/07/14 11:36:15;;;;;;;5.47;4.97;;;;;;;33.19;23.34;94802.38;4960051;23;20040;-80
2021/07/14 11:38:48;;;;;;;10.25;5.78;;;;;;;33.20;22.00;94804.72;4974520;23;20049;-81
2021/07/14 11:41:26;;;;;;;10.73;6.20;;;;;;;33.28;22.50;94802.84;4960073;28;20031;-80
2021/07/14 11:43:56;;;;;;;8.25;5.55;;;;;;;33.35;22.32;94792.88;4941472;29;20039;-81
2021/07/14 11:46:37;;;;;;;18.00;5.18;;;;;;;33.42;21.93;94790.22;4959534;28;20031;-81
2021/07/14 11:49:05;;;;;;;10.15;5.68;;;;;;;33.51;22.01;94789.09;4959491;29;20027;-82
2021/07/14 11:51:34;;;;;;;10.13;5.53;;;;;;;33.55;21.78;94789.91;4942071;29;20057;-80
2021/07/14 11:54:01;;;;;;;11.45;5.75;;;;;;;33.58;21.75;94789.16;4926256;29;20038;-80